<?xml version="1.0" encoding="UTF-8"?>
<gpx version="1.1" creator="https://www.youtrack.es" xsi:schemaLocation="http://www.topografix.com/GPX/1/1 http://www.topografix.com/GPX/1/1/gpx.xsd http://www.garmin.com/xmlschemas/GpxExtensions/v3 http://www.garmin.com/xmlschemas/GpxExtensionsv3.xsd http://www.garmin.com/xmlschemas/TrackPointExtension/v1 http://www.garmin.com/xmlschemas/TrackPointExtensionv1.xsd" xmlns:gpxtpx="http://www.garmin.com/xmlschemas/TrackPointExtension/v1" xmlns:gpxx="http://www.garmin.com/xmlschemas/GpxExtensions/v3" xmlns:xsi="http://www.w3.org/2001/XMLSchema-instance">
  <metadata>
    <link href="https://www.youtrack.es">
      <text>YouTrack.es</text>
    </link>
    <time>2026-05-09T00:48:04Z</time>
  </metadata>
  <trk>
    <src>https://www.youtrack.es</src>
    <link href="https://www.youtrack.es/ruta/3851-picons">
      <text>YouTrack.es</text>
    </link>
    <trkseg>
      <trkpt lat="41.934669" lon="0.677489">
        <ele>655.16</ele>
        <time>2019-01-26T18:44:27Z</time>
      </trkpt>
      <trkpt lat="41.934562" lon="0.677162">
        <ele>649.61</ele>
        <time>2019-01-26T18:45:07Z</time>
      </trkpt>
      <trkpt lat="41.933252" lon="0.676167">
        <ele>646.52</ele>
        <time>2019-01-26T18:45:47Z</time>
      </trkpt>
      <trkpt lat="41.934015" lon="0.675025">
        <ele>648.61</ele>
        <time>2019-01-26T18:46:27Z</time>
      </trkpt>
      <trkpt lat="41.934450" lon="0.674670">
        <ele>646.11</ele>
        <time>2019-01-26T18:47:07Z</time>
      </trkpt>
      <trkpt lat="41.934985" lon="0.672980">
        <ele>646.02</ele>
        <time>2019-01-26T18:47:47Z</time>
      </trkpt>
      <trkpt lat="41.935557" lon="0.672028">
        <ele>649.32</ele>
        <time>2019-01-26T18:48:27Z</time>
      </trkpt>
      <trkpt lat="41.935717" lon="0.670793">
        <ele>655.47</ele>
        <time>2019-01-26T18:49:07Z</time>
      </trkpt>
      <trkpt lat="41.935607" lon="0.670238">
        <ele>655.54</ele>
        <time>2019-01-26T18:49:47Z</time>
      </trkpt>
      <trkpt lat="41.935062" lon="0.669100">
        <ele>646.44</ele>
        <time>2019-01-26T18:50:27Z</time>
      </trkpt>
      <trkpt lat="41.934862" lon="0.667885">
        <ele>637.09</ele>
        <time>2019-01-26T18:51:07Z</time>
      </trkpt>
      <trkpt lat="41.934630" lon="0.667507">
        <ele>634.08</ele>
        <time>2019-01-26T18:51:47Z</time>
      </trkpt>
      <trkpt lat="41.934643" lon="0.665692">
        <ele>629.21</ele>
        <time>2019-01-26T18:52:27Z</time>
      </trkpt>
      <trkpt lat="41.934483" lon="0.664653">
        <ele>629.33</ele>
        <time>2019-01-26T18:53:07Z</time>
      </trkpt>
      <trkpt lat="41.934130" lon="0.663822">
        <ele>630.61</ele>
        <time>2019-01-26T18:53:47Z</time>
      </trkpt>
      <trkpt lat="41.933044" lon="0.664308">
        <ele>658.39</ele>
        <time>2019-01-26T18:54:27Z</time>
      </trkpt>
      <trkpt lat="41.932917" lon="0.664377">
        <ele>658.39</ele>
        <time>2019-01-26T18:55:07Z</time>
      </trkpt>
      <trkpt lat="41.932908" lon="0.664939">
        <ele>658.34</ele>
        <time>2019-01-26T18:55:47Z</time>
      </trkpt>
      <trkpt lat="41.932953" lon="0.665641">
        <ele>658.37</ele>
        <time>2019-01-26T18:56:27Z</time>
      </trkpt>
      <trkpt lat="41.932914" lon="0.666240">
        <ele>658.34</ele>
        <time>2019-01-26T18:57:07Z</time>
      </trkpt>
      <trkpt lat="41.932760" lon="0.666807">
        <ele>658.36</ele>
        <time>2019-01-26T18:57:47Z</time>
      </trkpt>
      <trkpt lat="41.932634" lon="0.667288">
        <ele>658.39</ele>
        <time>2019-01-26T18:58:27Z</time>
      </trkpt>
      <trkpt lat="41.932573" lon="0.667776">
        <ele>658.34</ele>
        <time>2019-01-26T18:59:07Z</time>
      </trkpt>
      <trkpt lat="41.932491" lon="0.668583">
        <ele>658.35</ele>
        <time>2019-01-26T18:59:47Z</time>
      </trkpt>
      <trkpt lat="41.932326" lon="0.669105">
        <ele>658.31</ele>
        <time>2019-01-26T19:00:27Z</time>
      </trkpt>
      <trkpt lat="41.932095" lon="0.669241">
        <ele>658.31</ele>
        <time>2019-01-26T19:01:07Z</time>
      </trkpt>
      <trkpt lat="41.931760" lon="0.668970">
        <ele>658.38</ele>
        <time>2019-01-26T19:01:47Z</time>
      </trkpt>
      <trkpt lat="41.931470" lon="0.668908">
        <ele>658.39</ele>
        <time>2019-01-26T19:02:27Z</time>
      </trkpt>
      <trkpt lat="41.931079" lon="0.668700">
        <ele>658.34</ele>
        <time>2019-01-26T19:03:07Z</time>
      </trkpt>
      <trkpt lat="41.930949" lon="0.668205">
        <ele>658.36</ele>
        <time>2019-01-26T19:03:47Z</time>
      </trkpt>
      <trkpt lat="41.930914" lon="0.668029">
        <ele>658.34</ele>
        <time>2019-01-26T19:04:27Z</time>
      </trkpt>
      <trkpt lat="41.930829" lon="0.667796">
        <ele>658.34</ele>
        <time>2019-01-26T19:05:07Z</time>
      </trkpt>
      <trkpt lat="41.930769" lon="0.667603">
        <ele>658.34</ele>
        <time>2019-01-26T19:05:47Z</time>
      </trkpt>
      <trkpt lat="41.930776" lon="0.667538">
        <ele>658.39</ele>
        <time>2019-01-26T19:06:27Z</time>
      </trkpt>
      <trkpt lat="41.930891" lon="0.667640">
        <ele>658.35</ele>
        <time>2019-01-26T19:07:07Z</time>
      </trkpt>
      <trkpt lat="41.931014" lon="0.667729">
        <ele>658.32</ele>
        <time>2019-01-26T19:07:47Z</time>
      </trkpt>
      <trkpt lat="41.931067" lon="0.667786">
        <ele>658.31</ele>
        <time>2019-01-26T19:08:27Z</time>
      </trkpt>
      <trkpt lat="41.931085" lon="0.667720">
        <ele>658.34</ele>
        <time>2019-01-26T19:09:07Z</time>
      </trkpt>
      <trkpt lat="41.931177" lon="0.667803">
        <ele>658.40</ele>
        <time>2019-01-26T19:09:47Z</time>
      </trkpt>
      <trkpt lat="41.931185" lon="0.667813">
        <ele>658.35</ele>
        <time>2019-01-26T19:10:27Z</time>
      </trkpt>
      <trkpt lat="41.931232" lon="0.667925">
        <ele>658.37</ele>
        <time>2019-01-26T19:11:07Z</time>
      </trkpt>
      <trkpt lat="41.931300" lon="0.668013">
        <ele>658.39</ele>
        <time>2019-01-26T19:11:47Z</time>
      </trkpt>
      <trkpt lat="41.931389" lon="0.667985">
        <ele>658.33</ele>
        <time>2019-01-26T19:12:27Z</time>
      </trkpt>
      <trkpt lat="41.931417" lon="0.667933">
        <ele>658.37</ele>
        <time>2019-01-26T19:13:07Z</time>
      </trkpt>
      <trkpt lat="41.931504" lon="0.667827">
        <ele>658.34</ele>
        <time>2019-01-26T19:13:47Z</time>
      </trkpt>
      <trkpt lat="41.931560" lon="0.667805">
        <ele>658.32</ele>
        <time>2019-01-26T19:14:27Z</time>
      </trkpt>
      <trkpt lat="41.931620" lon="0.667757">
        <ele>658.32</ele>
        <time>2019-01-26T19:15:07Z</time>
      </trkpt>
      <trkpt lat="41.931670" lon="0.667635">
        <ele>658.31</ele>
        <time>2019-01-26T19:15:47Z</time>
      </trkpt>
      <trkpt lat="41.931689" lon="0.667520">
        <ele>658.39</ele>
        <time>2019-01-26T19:16:27Z</time>
      </trkpt>
      <trkpt lat="41.931748" lon="0.667403">
        <ele>658.33</ele>
        <time>2019-01-26T19:17:07Z</time>
      </trkpt>
      <trkpt lat="41.931731" lon="0.667232">
        <ele>658.37</ele>
        <time>2019-01-26T19:17:47Z</time>
      </trkpt>
      <trkpt lat="41.931728" lon="0.667182">
        <ele>658.33</ele>
        <time>2019-01-26T19:18:27Z</time>
      </trkpt>
      <trkpt lat="41.931756" lon="0.667112">
        <ele>658.35</ele>
        <time>2019-01-26T19:19:07Z</time>
      </trkpt>
      <trkpt lat="41.931619" lon="0.667037">
        <ele>658.31</ele>
        <time>2019-01-26T19:19:47Z</time>
      </trkpt>
      <trkpt lat="41.931701" lon="0.666961">
        <ele>658.36</ele>
        <time>2019-01-26T19:20:27Z</time>
      </trkpt>
      <trkpt lat="41.931805" lon="0.667036">
        <ele>658.38</ele>
        <time>2019-01-26T19:21:07Z</time>
      </trkpt>
      <trkpt lat="41.931756" lon="0.666920">
        <ele>658.33</ele>
        <time>2019-01-26T19:21:47Z</time>
      </trkpt>
      <trkpt lat="41.931617" lon="0.666883">
        <ele>658.32</ele>
        <time>2019-01-26T19:22:27Z</time>
      </trkpt>
      <trkpt lat="41.931521" lon="0.666990">
        <ele>658.31</ele>
        <time>2019-01-26T19:23:07Z</time>
      </trkpt>
      <trkpt lat="41.931453" lon="0.667046">
        <ele>658.38</ele>
        <time>2019-01-26T19:23:47Z</time>
      </trkpt>
      <trkpt lat="41.931455" lon="0.667158">
        <ele>658.34</ele>
        <time>2019-01-26T19:24:27Z</time>
      </trkpt>
      <trkpt lat="41.931456" lon="0.667294">
        <ele>658.34</ele>
        <time>2019-01-26T19:25:07Z</time>
      </trkpt>
      <trkpt lat="41.931442" lon="0.667365">
        <ele>658.37</ele>
        <time>2019-01-26T19:25:47Z</time>
      </trkpt>
      <trkpt lat="41.931382" lon="0.667400">
        <ele>658.34</ele>
        <time>2019-01-26T19:26:27Z</time>
      </trkpt>
      <trkpt lat="41.931353" lon="0.667390">
        <ele>658.36</ele>
        <time>2019-01-26T19:27:07Z</time>
      </trkpt>
      <trkpt lat="41.931377" lon="0.667491">
        <ele>658.38</ele>
        <time>2019-01-26T19:27:47Z</time>
      </trkpt>
      <trkpt lat="41.931444" lon="0.667493">
        <ele>658.37</ele>
        <time>2019-01-26T19:28:27Z</time>
      </trkpt>
      <trkpt lat="41.931513" lon="0.667436">
        <ele>658.38</ele>
        <time>2019-01-26T19:29:07Z</time>
      </trkpt>
      <trkpt lat="41.931540" lon="0.667349">
        <ele>658.31</ele>
        <time>2019-01-26T19:29:47Z</time>
      </trkpt>
      <trkpt lat="41.931579" lon="0.667334">
        <ele>658.31</ele>
        <time>2019-01-26T19:30:27Z</time>
      </trkpt>
      <trkpt lat="41.931612" lon="0.667415">
        <ele>658.33</ele>
        <time>2019-01-26T19:31:07Z</time>
      </trkpt>
      <trkpt lat="41.931563" lon="0.667546">
        <ele>658.36</ele>
        <time>2019-01-26T19:31:47Z</time>
      </trkpt>
      <trkpt lat="41.931491" lon="0.667652">
        <ele>658.35</ele>
        <time>2019-01-26T19:32:27Z</time>
      </trkpt>
      <trkpt lat="41.931473" lon="0.667698">
        <ele>658.35</ele>
        <time>2019-01-26T19:33:07Z</time>
      </trkpt>
      <trkpt lat="41.931412" lon="0.667749">
        <ele>658.35</ele>
        <time>2019-01-26T19:33:47Z</time>
      </trkpt>
      <trkpt lat="41.931403" lon="0.667834">
        <ele>658.35</ele>
        <time>2019-01-26T19:34:27Z</time>
      </trkpt>
      <trkpt lat="41.931409" lon="0.668049">
        <ele>658.37</ele>
        <time>2019-01-26T19:35:07Z</time>
      </trkpt>
      <trkpt lat="41.931344" lon="0.668106">
        <ele>658.37</ele>
        <time>2019-01-26T19:35:47Z</time>
      </trkpt>
      <trkpt lat="41.931189" lon="0.667898">
        <ele>658.33</ele>
        <time>2019-01-26T19:36:27Z</time>
      </trkpt>
      <trkpt lat="41.931117" lon="0.667898">
        <ele>658.32</ele>
        <time>2019-01-26T19:37:07Z</time>
      </trkpt>
      <trkpt lat="41.931028" lon="0.667689">
        <ele>658.31</ele>
        <time>2019-01-26T19:37:47Z</time>
      </trkpt>
      <trkpt lat="41.930970" lon="0.667530">
        <ele>658.34</ele>
        <time>2019-01-26T19:38:27Z</time>
      </trkpt>
      <trkpt lat="41.930934" lon="0.667631">
        <ele>658.37</ele>
        <time>2019-01-26T19:39:07Z</time>
      </trkpt>
      <trkpt lat="41.930927" lon="0.667692">
        <ele>658.34</ele>
        <time>2019-01-26T19:39:47Z</time>
      </trkpt>
      <trkpt lat="41.930800" lon="0.667617">
        <ele>658.33</ele>
        <time>2019-01-26T19:40:27Z</time>
      </trkpt>
      <trkpt lat="41.930804" lon="0.667719">
        <ele>658.32</ele>
        <time>2019-01-26T19:41:07Z</time>
      </trkpt>
      <trkpt lat="41.930857" lon="0.667886">
        <ele>658.35</ele>
        <time>2019-01-26T19:41:47Z</time>
      </trkpt>
      <trkpt lat="41.930962" lon="0.668037">
        <ele>658.37</ele>
        <time>2019-01-26T19:42:27Z</time>
      </trkpt>
      <trkpt lat="41.930924" lon="0.668135">
        <ele>658.38</ele>
        <time>2019-01-26T19:43:07Z</time>
      </trkpt>
      <trkpt lat="41.930969" lon="0.668308">
        <ele>658.33</ele>
        <time>2019-01-26T19:43:47Z</time>
      </trkpt>
      <trkpt lat="41.931202" lon="0.668760">
        <ele>658.32</ele>
        <time>2019-01-26T19:44:27Z</time>
      </trkpt>
      <trkpt lat="41.931824" lon="0.669108">
        <ele>658.31</ele>
        <time>2019-01-26T19:45:07Z</time>
      </trkpt>
      <trkpt lat="41.931787" lon="0.669133">
        <ele>658.32</ele>
        <time>2019-01-26T19:45:47Z</time>
      </trkpt>
      <trkpt lat="41.932244" lon="0.669226">
        <ele>658.38</ele>
        <time>2019-01-26T19:46:27Z</time>
      </trkpt>
      <trkpt lat="41.932576" lon="0.668356">
        <ele>658.36</ele>
        <time>2019-01-26T19:47:07Z</time>
      </trkpt>
      <trkpt lat="41.932625" lon="0.667563">
        <ele>658.33</ele>
        <time>2019-01-26T19:47:47Z</time>
      </trkpt>
      <trkpt lat="41.932835" lon="0.666685">
        <ele>658.39</ele>
        <time>2019-01-26T19:48:27Z</time>
      </trkpt>
      <trkpt lat="41.932991" lon="0.665934">
        <ele>658.38</ele>
        <time>2019-01-26T19:49:07Z</time>
      </trkpt>
      <trkpt lat="41.932954" lon="0.665410">
        <ele>658.33</ele>
        <time>2019-01-26T19:49:47Z</time>
      </trkpt>
      <trkpt lat="41.932895" lon="0.664717">
        <ele>658.31</ele>
        <time>2019-01-26T19:50:27Z</time>
      </trkpt>
      <trkpt lat="41.932872" lon="0.664559">
        <ele>658.32</ele>
        <time>2019-01-26T19:51:07Z</time>
      </trkpt>
      <trkpt lat="41.932603" lon="0.663543">
        <ele>659.90</ele>
        <time>2019-01-26T19:51:47Z</time>
      </trkpt>
      <trkpt lat="41.932198" lon="0.663165">
        <ele>665.41</ele>
        <time>2019-01-26T19:52:27Z</time>
      </trkpt>
      <trkpt lat="41.931802" lon="0.662923">
        <ele>665.92</ele>
        <time>2019-01-26T19:53:07Z</time>
      </trkpt>
      <trkpt lat="41.931132" lon="0.662793">
        <ele>665.73</ele>
        <time>2019-01-26T19:53:47Z</time>
      </trkpt>
      <trkpt lat="41.930988" lon="0.662320">
        <ele>667.07</ele>
        <time>2019-01-26T19:54:27Z</time>
      </trkpt>
      <trkpt lat="41.931012" lon="0.660975">
        <ele>669.26</ele>
        <time>2019-01-26T19:55:07Z</time>
      </trkpt>
      <trkpt lat="41.930817" lon="0.660532">
        <ele>667.22</ele>
        <time>2019-01-26T19:55:47Z</time>
      </trkpt>
      <trkpt lat="41.930737" lon="0.659187">
        <ele>677.17</ele>
        <time>2019-01-26T19:56:27Z</time>
      </trkpt>
      <trkpt lat="41.930950" lon="0.656783">
        <ele>706.58</ele>
        <time>2019-01-26T19:57:07Z</time>
      </trkpt>
      <trkpt lat="41.929988" lon="0.654673">
        <ele>749.60</ele>
        <time>2019-01-26T19:57:47Z</time>
      </trkpt>
      <trkpt lat="41.929995" lon="0.653741">
        <ele>744.72</ele>
        <time>2019-01-26T19:58:27Z</time>
      </trkpt>
      <trkpt lat="41.929708" lon="0.653343">
        <ele>772.13</ele>
        <time>2019-01-26T19:59:07Z</time>
      </trkpt>
      <trkpt lat="41.929444" lon="0.652448">
        <ele>784.31</ele>
        <time>2019-01-26T19:59:47Z</time>
      </trkpt>
      <trkpt lat="41.928497" lon="0.650437">
        <ele>811.54</ele>
        <time>2019-01-26T20:00:27Z</time>
      </trkpt>
      <trkpt lat="41.928015" lon="0.650158">
        <ele>818.02</ele>
        <time>2019-01-26T20:01:07Z</time>
      </trkpt>
      <trkpt lat="41.926769" lon="0.648585">
        <ele>834.58</ele>
        <time>2019-01-26T20:01:47Z</time>
      </trkpt>
      <trkpt lat="41.926045" lon="0.648133">
        <ele>858.64</ele>
        <time>2019-01-26T20:02:27Z</time>
      </trkpt>
      <trkpt lat="41.925718" lon="0.647567">
        <ele>872.05</ele>
        <time>2019-01-26T20:03:07Z</time>
      </trkpt>
      <trkpt lat="41.925778" lon="0.646730">
        <ele>881.95</ele>
        <time>2019-01-26T20:03:47Z</time>
      </trkpt>
      <trkpt lat="41.925389" lon="0.646025">
        <ele>869.91</ele>
        <time>2019-01-26T20:04:27Z</time>
      </trkpt>
      <trkpt lat="41.925480" lon="0.645840">
        <ele>861.72</ele>
        <time>2019-01-26T20:05:07Z</time>
      </trkpt>
      <trkpt lat="41.925367" lon="0.645629">
        <ele>860.10</ele>
        <time>2019-01-26T20:05:47Z</time>
      </trkpt>
      <trkpt lat="41.924897" lon="0.645250">
        <ele>852.91</ele>
        <time>2019-01-26T20:06:27Z</time>
      </trkpt>
      <trkpt lat="41.924967" lon="0.644293">
        <ele>856.41</ele>
        <time>2019-01-26T20:07:07Z</time>
      </trkpt>
      <trkpt lat="41.924583" lon="0.643578">
        <ele>862.04</ele>
        <time>2019-01-26T20:07:47Z</time>
      </trkpt>
      <trkpt lat="41.924553" lon="0.643472">
        <ele>862.09</ele>
        <time>2019-01-26T20:08:27Z</time>
      </trkpt>
      <trkpt lat="41.924608" lon="0.643414">
        <ele>865.04</ele>
        <time>2019-01-26T20:09:07Z</time>
      </trkpt>
      <trkpt lat="41.925177" lon="0.643517">
        <ele>873.68</ele>
        <time>2019-01-26T20:09:47Z</time>
      </trkpt>
      <trkpt lat="41.925063" lon="0.642612">
        <ele>888.16</ele>
        <time>2019-01-26T20:10:27Z</time>
      </trkpt>
      <trkpt lat="41.925190" lon="0.642212">
        <ele>889.83</ele>
        <time>2019-01-26T20:11:07Z</time>
      </trkpt>
      <trkpt lat="41.925392" lon="0.642127">
        <ele>898.29</ele>
        <time>2019-01-26T20:11:47Z</time>
      </trkpt>
      <trkpt lat="41.925532" lon="0.641812">
        <ele>905.47</ele>
        <time>2019-01-26T20:12:27Z</time>
      </trkpt>
      <trkpt lat="41.925561" lon="0.642040">
        <ele>905.40</ele>
        <time>2019-01-26T20:13:07Z</time>
      </trkpt>
      <trkpt lat="41.925670" lon="0.642177">
        <ele>905.42</ele>
        <time>2019-01-26T20:13:47Z</time>
      </trkpt>
      <trkpt lat="41.925655" lon="0.642070">
        <ele>905.41</ele>
        <time>2019-01-26T20:14:27Z</time>
      </trkpt>
      <trkpt lat="41.925583" lon="0.641914">
        <ele>905.43</ele>
        <time>2019-01-26T20:15:07Z</time>
      </trkpt>
      <trkpt lat="41.925413" lon="0.641700">
        <ele>900.86</ele>
        <time>2019-01-26T20:15:47Z</time>
      </trkpt>
      <trkpt lat="41.925262" lon="0.641877">
        <ele>893.02</ele>
        <time>2019-01-26T20:16:27Z</time>
      </trkpt>
      <trkpt lat="41.925425" lon="0.641855">
        <ele>898.17</ele>
        <time>2019-01-26T20:17:07Z</time>
      </trkpt>
      <trkpt lat="41.925355" lon="0.642135">
        <ele>895.32</ele>
        <time>2019-01-26T20:17:47Z</time>
      </trkpt>
      <trkpt lat="41.925140" lon="0.642068">
        <ele>906.78</ele>
        <time>2019-01-26T20:18:27Z</time>
      </trkpt>
      <trkpt lat="41.925266" lon="0.641386">
        <ele>897.65</ele>
        <time>2019-01-26T20:19:07Z</time>
      </trkpt>
      <trkpt lat="41.925490" lon="0.641434">
        <ele>859.64</ele>
        <time>2019-01-26T20:19:47Z</time>
      </trkpt>
      <trkpt lat="41.925635" lon="0.641583">
        <ele>859.68</ele>
        <time>2019-01-26T20:20:27Z</time>
      </trkpt>
      <trkpt lat="41.925681" lon="0.641632">
        <ele>859.61</ele>
        <time>2019-01-26T20:21:07Z</time>
      </trkpt>
      <trkpt lat="41.925821" lon="0.641681">
        <ele>859.61</ele>
        <time>2019-01-26T20:21:47Z</time>
      </trkpt>
      <trkpt lat="41.925829" lon="0.641640">
        <ele>859.61</ele>
        <time>2019-01-26T20:22:27Z</time>
      </trkpt>
      <trkpt lat="41.925835" lon="0.641512">
        <ele>859.62</ele>
        <time>2019-01-26T20:23:07Z</time>
      </trkpt>
      <trkpt lat="41.925834" lon="0.641260">
        <ele>859.65</ele>
        <time>2019-01-26T20:23:47Z</time>
      </trkpt>
      <trkpt lat="41.925781" lon="0.641378">
        <ele>859.62</ele>
        <time>2019-01-26T20:24:27Z</time>
      </trkpt>
      <trkpt lat="41.925786" lon="0.641571">
        <ele>859.67</ele>
        <time>2019-01-26T20:25:07Z</time>
      </trkpt>
      <trkpt lat="41.925775" lon="0.641664">
        <ele>859.66</ele>
        <time>2019-01-26T20:25:47Z</time>
      </trkpt>
      <trkpt lat="41.925575" lon="0.641452">
        <ele>859.64</ele>
        <time>2019-01-26T20:26:27Z</time>
      </trkpt>
      <trkpt lat="41.925252" lon="0.641411">
        <ele>898.79</ele>
        <time>2019-01-26T20:27:07Z</time>
      </trkpt>
      <trkpt lat="41.925217" lon="0.641364">
        <ele>878.00</ele>
        <time>2018-09-11T06:03:52Z</time>
      </trkpt>
      <trkpt lat="41.924885" lon="0.641275">
        <ele>875.45</ele>
        <time>2018-09-11T06:04:10Z</time>
      </trkpt>
      <trkpt lat="41.924592" lon="0.640991">
        <ele>878.58</ele>
        <time>2018-09-11T06:04:34Z</time>
      </trkpt>
      <trkpt lat="41.924353" lon="0.640319">
        <ele>869.64</ele>
        <time>2018-09-11T06:04:54Z</time>
      </trkpt>
      <trkpt lat="41.923997" lon="0.640398">
        <ele>868.11</ele>
        <time>2018-09-11T06:05:12Z</time>
      </trkpt>
      <trkpt lat="41.923769" lon="0.639974">
        <ele>862.01</ele>
        <time>2018-09-11T06:05:36Z</time>
      </trkpt>
      <trkpt lat="41.923736" lon="0.639972">
        <ele>861.55</ele>
        <time>2018-09-11T06:06:32Z</time>
      </trkpt>
      <trkpt lat="41.923553" lon="0.639995">
        <ele>863.81</ele>
        <time>2018-09-11T06:07:04Z</time>
      </trkpt>
      <trkpt lat="41.923356" lon="0.639908">
        <ele>872.67</ele>
        <time>2018-09-11T06:07:20Z</time>
      </trkpt>
      <trkpt lat="41.923158" lon="0.639841">
        <ele>875.80</ele>
        <time>2018-09-11T06:07:32Z</time>
      </trkpt>
      <trkpt lat="41.923011" lon="0.639989">
        <ele>876.65</ele>
        <time>2018-09-11T06:07:42Z</time>
      </trkpt>
      <trkpt lat="41.923089" lon="0.640228">
        <ele>880.25</ele>
        <time>2018-09-11T06:08:00Z</time>
      </trkpt>
      <trkpt lat="41.923172" lon="0.640481">
        <ele>887.93</ele>
        <time>2018-09-11T06:08:14Z</time>
      </trkpt>
      <trkpt lat="41.923149" lon="0.640743">
        <ele>883.38</ele>
        <time>2018-09-11T06:08:26Z</time>
      </trkpt>
      <trkpt lat="41.923066" lon="0.640998">
        <ele>892.83</ele>
        <time>2018-09-11T06:09:08Z</time>
      </trkpt>
      <trkpt lat="41.922943" lon="0.640818">
        <ele>898.77</ele>
        <time>2018-09-11T06:09:22Z</time>
      </trkpt>
      <trkpt lat="41.922765" lon="0.640725">
        <ele>894.01</ele>
        <time>2018-09-11T06:09:38Z</time>
      </trkpt>
      <trkpt lat="41.922608" lon="0.640566">
        <ele>897.12</ele>
        <time>2018-09-11T06:09:54Z</time>
      </trkpt>
      <trkpt lat="41.922406" lon="0.640465">
        <ele>898.14</ele>
        <time>2018-09-11T06:10:08Z</time>
      </trkpt>
      <trkpt lat="41.922360" lon="0.640206">
        <ele>898.56</ele>
        <time>2018-09-11T06:10:24Z</time>
      </trkpt>
      <trkpt lat="41.922273" lon="0.639975">
        <ele>897.73</ele>
        <time>2018-09-11T06:10:38Z</time>
      </trkpt>
      <trkpt lat="41.922145" lon="0.639775">
        <ele>900.85</ele>
        <time>2018-09-11T06:10:50Z</time>
      </trkpt>
      <trkpt lat="41.921949" lon="0.639770">
        <ele>901.38</ele>
        <time>2018-09-11T06:11:28Z</time>
      </trkpt>
      <trkpt lat="41.921764" lon="0.639793">
        <ele>901.58</ele>
        <time>2018-09-11T06:11:42Z</time>
      </trkpt>
      <trkpt lat="41.921585" lon="0.639904">
        <ele>907.22</ele>
        <time>2018-09-11T06:11:56Z</time>
      </trkpt>
      <trkpt lat="41.921417" lon="0.640043">
        <ele>908.33</ele>
        <time>2018-09-11T06:12:08Z</time>
      </trkpt>
      <trkpt lat="41.921227" lon="0.640128">
        <ele>907.34</ele>
        <time>2018-09-11T06:12:20Z</time>
      </trkpt>
      <trkpt lat="41.921052" lon="0.640199">
        <ele>908.82</ele>
        <time>2018-09-11T06:12:34Z</time>
      </trkpt>
      <trkpt lat="41.920915" lon="0.640402">
        <ele>911.71</ele>
        <time>2018-09-11T06:12:48Z</time>
      </trkpt>
      <trkpt lat="41.920736" lon="0.640486">
        <ele>906.00</ele>
        <time>2018-09-11T06:12:58Z</time>
      </trkpt>
      <trkpt lat="41.920521" lon="0.640542">
        <ele>907.62</ele>
        <time>2018-09-11T06:13:08Z</time>
      </trkpt>
      <trkpt lat="41.920348" lon="0.640617">
        <ele>899.91</ele>
        <time>2018-09-11T06:13:26Z</time>
      </trkpt>
      <trkpt lat="41.920199" lon="0.640811">
        <ele>899.99</ele>
        <time>2018-09-11T06:13:44Z</time>
      </trkpt>
      <trkpt lat="41.920005" lon="0.640876">
        <ele>896.35</ele>
        <time>2018-09-11T06:13:56Z</time>
      </trkpt>
      <trkpt lat="41.919822" lon="0.640940">
        <ele>891.11</ele>
        <time>2018-09-11T06:14:10Z</time>
      </trkpt>
      <trkpt lat="41.919622" lon="0.641017">
        <ele>890.84</ele>
        <time>2018-09-11T06:14:24Z</time>
      </trkpt>
      <trkpt lat="41.919434" lon="0.641081">
        <ele>884.43</ele>
        <time>2018-09-11T06:14:46Z</time>
      </trkpt>
      <trkpt lat="41.919238" lon="0.641131">
        <ele>891.92</ele>
        <time>2018-09-11T06:14:56Z</time>
      </trkpt>
      <trkpt lat="41.919037" lon="0.641133">
        <ele>886.36</ele>
        <time>2018-09-11T06:15:12Z</time>
      </trkpt>
      <trkpt lat="41.918845" lon="0.641120">
        <ele>886.47</ele>
        <time>2018-09-11T06:15:28Z</time>
      </trkpt>
      <trkpt lat="41.918630" lon="0.641103">
        <ele>883.01</ele>
        <time>2018-09-11T06:15:44Z</time>
      </trkpt>
      <trkpt lat="41.918426" lon="0.641085">
        <ele>884.02</ele>
        <time>2018-09-11T06:16:00Z</time>
      </trkpt>
      <trkpt lat="41.918207" lon="0.641118">
        <ele>880.40</ele>
        <time>2018-09-11T06:16:16Z</time>
      </trkpt>
      <trkpt lat="41.918019" lon="0.641133">
        <ele>874.58</ele>
        <time>2018-09-11T06:16:30Z</time>
      </trkpt>
      <trkpt lat="41.917818" lon="0.641165">
        <ele>873.59</ele>
        <time>2018-09-11T06:16:42Z</time>
      </trkpt>
      <trkpt lat="41.917622" lon="0.641093">
        <ele>863.66</ele>
        <time>2018-09-11T06:17:02Z</time>
      </trkpt>
      <trkpt lat="41.917469" lon="0.640947">
        <ele>867.04</ele>
        <time>2018-09-11T06:17:14Z</time>
      </trkpt>
      <trkpt lat="41.917290" lon="0.640884">
        <ele>862.39</ele>
        <time>2018-09-11T06:17:28Z</time>
      </trkpt>
      <trkpt lat="41.917125" lon="0.640736">
        <ele>859.38</ele>
        <time>2018-09-11T06:17:40Z</time>
      </trkpt>
      <trkpt lat="41.917001" lon="0.640556">
        <ele>852.04</ele>
        <time>2018-09-11T06:18:00Z</time>
      </trkpt>
      <trkpt lat="41.916914" lon="0.640332">
        <ele>852.88</ele>
        <time>2018-09-11T06:18:16Z</time>
      </trkpt>
      <trkpt lat="41.916748" lon="0.640189">
        <ele>849.74</ele>
        <time>2018-09-11T06:18:32Z</time>
      </trkpt>
      <trkpt lat="41.916599" lon="0.640033">
        <ele>852.91</ele>
        <time>2018-09-11T06:18:48Z</time>
      </trkpt>
      <trkpt lat="41.916408" lon="0.640007">
        <ele>847.41</ele>
        <time>2018-09-11T06:19:04Z</time>
      </trkpt>
      <trkpt lat="41.916261" lon="0.640157">
        <ele>844.44</ele>
        <time>2018-09-11T06:19:22Z</time>
      </trkpt>
      <trkpt lat="41.916094" lon="0.640253">
        <ele>835.77</ele>
        <time>2018-09-11T06:19:32Z</time>
      </trkpt>
      <trkpt lat="41.915905" lon="0.640283">
        <ele>838.86</ele>
        <time>2018-09-11T06:19:48Z</time>
      </trkpt>
      <trkpt lat="41.915749" lon="0.640149">
        <ele>828.59</ele>
        <time>2018-09-11T06:20:06Z</time>
      </trkpt>
      <trkpt lat="41.915570" lon="0.640026">
        <ele>831.07</ele>
        <time>2018-09-11T06:20:14Z</time>
      </trkpt>
      <trkpt lat="41.915409" lon="0.639905">
        <ele>832.56</ele>
        <time>2018-09-11T06:20:28Z</time>
      </trkpt>
      <trkpt lat="41.915245" lon="0.639761">
        <ele>838.77</ele>
        <time>2018-09-11T06:20:42Z</time>
      </trkpt>
      <trkpt lat="41.915053" lon="0.639679">
        <ele>828.96</ele>
        <time>2018-09-11T06:20:56Z</time>
      </trkpt>
      <trkpt lat="41.914870" lon="0.639642">
        <ele>829.08</ele>
        <time>2018-09-11T06:21:12Z</time>
      </trkpt>
      <trkpt lat="41.914674" lon="0.639729">
        <ele>823.78</ele>
        <time>2018-09-11T06:21:28Z</time>
      </trkpt>
      <trkpt lat="41.914521" lon="0.639886">
        <ele>814.51</ele>
        <time>2018-09-11T06:21:50Z</time>
      </trkpt>
      <trkpt lat="41.914552" lon="0.640137">
        <ele>813.52</ele>
        <time>2018-09-11T06:22:04Z</time>
      </trkpt>
      <trkpt lat="41.914480" lon="0.640420">
        <ele>810.63</ele>
        <time>2018-09-11T06:22:16Z</time>
      </trkpt>
      <trkpt lat="41.914386" lon="0.640671">
        <ele>819.27</ele>
        <time>2018-09-11T06:22:28Z</time>
      </trkpt>
      <trkpt lat="41.914276" lon="0.640897">
        <ele>817.06</ele>
        <time>2018-09-11T06:22:44Z</time>
      </trkpt>
      <trkpt lat="41.914132" lon="0.641092">
        <ele>816.22</ele>
        <time>2018-09-11T06:22:52Z</time>
      </trkpt>
      <trkpt lat="41.914021" lon="0.641286">
        <ele>823.43</ele>
        <time>2018-09-11T06:23:00Z</time>
      </trkpt>
      <trkpt lat="41.913873" lon="0.641440">
        <ele>823.74</ele>
        <time>2018-09-11T06:23:22Z</time>
      </trkpt>
      <trkpt lat="41.913692" lon="0.641402">
        <ele>824.89</ele>
        <time>2018-09-11T06:23:30Z</time>
      </trkpt>
      <trkpt lat="41.913492" lon="0.641401">
        <ele>823.56</ele>
        <time>2018-09-11T06:23:42Z</time>
      </trkpt>
      <trkpt lat="41.913294" lon="0.641430">
        <ele>822.37</ele>
        <time>2018-09-11T06:23:52Z</time>
      </trkpt>
      <trkpt lat="41.913067" lon="0.641487">
        <ele>823.27</ele>
        <time>2018-09-11T06:24:02Z</time>
      </trkpt>
      <trkpt lat="41.912885" lon="0.641593">
        <ele>818.41</ele>
        <time>2018-09-11T06:24:24Z</time>
      </trkpt>
      <trkpt lat="41.912727" lon="0.641772">
        <ele>815.72</ele>
        <time>2018-09-11T06:24:36Z</time>
      </trkpt>
      <trkpt lat="41.912571" lon="0.641921">
        <ele>810.65</ele>
        <time>2018-09-11T06:24:54Z</time>
      </trkpt>
      <trkpt lat="41.912390" lon="0.642001">
        <ele>812.66</ele>
        <time>2018-09-11T06:25:02Z</time>
      </trkpt>
      <trkpt lat="41.912194" lon="0.642143">
        <ele>816.26</ele>
        <time>2018-09-11T06:25:22Z</time>
      </trkpt>
      <trkpt lat="41.912047" lon="0.642345">
        <ele>810.91</ele>
        <time>2018-09-11T06:25:34Z</time>
      </trkpt>
      <trkpt lat="41.911903" lon="0.642539">
        <ele>803.29</ele>
        <time>2018-09-11T06:25:46Z</time>
      </trkpt>
      <trkpt lat="41.911751" lon="0.642673">
        <ele>803.26</ele>
        <time>2018-09-11T06:26:02Z</time>
      </trkpt>
      <trkpt lat="41.911606" lon="0.642848">
        <ele>801.98</ele>
        <time>2018-09-11T06:26:16Z</time>
      </trkpt>
      <trkpt lat="41.911443" lon="0.642987">
        <ele>791.92</ele>
        <time>2018-09-11T06:26:30Z</time>
      </trkpt>
      <trkpt lat="41.911288" lon="0.643130">
        <ele>789.09</ele>
        <time>2018-09-11T06:26:42Z</time>
      </trkpt>
      <trkpt lat="41.911166" lon="0.643314">
        <ele>794.43</ele>
        <time>2018-09-11T06:26:56Z</time>
      </trkpt>
      <trkpt lat="41.911243" lon="0.643577">
        <ele>795.31</ele>
        <time>2018-09-11T06:27:08Z</time>
      </trkpt>
      <trkpt lat="41.911318" lon="0.643799">
        <ele>795.32</ele>
        <time>2018-09-11T06:27:18Z</time>
      </trkpt>
      <trkpt lat="41.911354" lon="0.644078">
        <ele>790.90</ele>
        <time>2018-09-11T06:27:34Z</time>
      </trkpt>
      <trkpt lat="41.911350" lon="0.644324">
        <ele>779.52</ele>
        <time>2018-09-11T06:27:52Z</time>
      </trkpt>
      <trkpt lat="41.911456" lon="0.644520">
        <ele>778.65</ele>
        <time>2018-09-11T06:28:04Z</time>
      </trkpt>
      <trkpt lat="41.911581" lon="0.644733">
        <ele>783.88</ele>
        <time>2018-09-11T06:28:14Z</time>
      </trkpt>
      <trkpt lat="41.911691" lon="0.644927">
        <ele>787.05</ele>
        <time>2018-09-11T06:28:22Z</time>
      </trkpt>
      <trkpt lat="41.911782" lon="0.645177">
        <ele>789.32</ele>
        <time>2018-09-11T06:28:38Z</time>
      </trkpt>
      <trkpt lat="41.911672" lon="0.645389">
        <ele>780.25</ele>
        <time>2018-09-11T06:28:54Z</time>
      </trkpt>
      <trkpt lat="41.911491" lon="0.645334">
        <ele>782.30</ele>
        <time>2018-09-11T06:29:06Z</time>
      </trkpt>
      <trkpt lat="41.911291" lon="0.645286">
        <ele>781.06</ele>
        <time>2018-09-11T06:29:22Z</time>
      </trkpt>
      <trkpt lat="41.911117" lon="0.645145">
        <ele>777.05</ele>
        <time>2018-09-11T06:29:38Z</time>
      </trkpt>
      <trkpt lat="41.910947" lon="0.645044">
        <ele>778.91</ele>
        <time>2018-09-11T06:29:48Z</time>
      </trkpt>
      <trkpt lat="41.910781" lon="0.644917">
        <ele>777.62</ele>
        <time>2018-09-11T06:30:00Z</time>
      </trkpt>
      <trkpt lat="41.910607" lon="0.644833">
        <ele>768.90</ele>
        <time>2018-09-11T06:30:18Z</time>
      </trkpt>
      <trkpt lat="41.910397" lon="0.644817">
        <ele>773.54</ele>
        <time>2018-09-11T06:30:28Z</time>
      </trkpt>
      <trkpt lat="41.910241" lon="0.644698">
        <ele>767.46</ele>
        <time>2018-09-11T06:30:38Z</time>
      </trkpt>
      <trkpt lat="41.910047" lon="0.644575">
        <ele>761.79</ele>
        <time>2018-09-11T06:30:54Z</time>
      </trkpt>
      <trkpt lat="41.909988" lon="0.644809">
        <ele>755.78</ele>
        <time>2018-09-11T06:31:04Z</time>
      </trkpt>
      <trkpt lat="41.910097" lon="0.645003">
        <ele>755.83</ele>
        <time>2018-09-11T06:31:12Z</time>
      </trkpt>
      <trkpt lat="41.910208" lon="0.645206">
        <ele>757.13</ele>
        <time>2018-09-11T06:31:24Z</time>
      </trkpt>
      <trkpt lat="41.910200" lon="0.645482">
        <ele>761.87</ele>
        <time>2018-09-11T06:31:34Z</time>
      </trkpt>
      <trkpt lat="41.910198" lon="0.645733">
        <ele>751.92</ele>
        <time>2018-09-11T06:31:44Z</time>
      </trkpt>
      <trkpt lat="41.910187" lon="0.645986">
        <ele>752.05</ele>
        <time>2018-09-11T06:32:06Z</time>
      </trkpt>
      <trkpt lat="41.910011" lon="0.646145">
        <ele>754.31</ele>
        <time>2018-09-11T06:32:20Z</time>
      </trkpt>
      <trkpt lat="41.909817" lon="0.646126">
        <ele>756.22</ele>
        <time>2018-09-11T06:32:36Z</time>
      </trkpt>
      <trkpt lat="41.909627" lon="0.646025">
        <ele>755.28</ele>
        <time>2018-09-11T06:32:48Z</time>
      </trkpt>
      <trkpt lat="41.909518" lon="0.645782">
        <ele>757.09</ele>
        <time>2018-09-11T06:33:02Z</time>
      </trkpt>
      <trkpt lat="41.909408" lon="0.645584">
        <ele>760.52</ele>
        <time>2018-09-11T06:33:46Z</time>
      </trkpt>
      <trkpt lat="41.909515" lon="0.645782">
        <ele>754.69</ele>
        <time>2018-09-11T06:34:02Z</time>
      </trkpt>
      <trkpt lat="41.909648" lon="0.645963">
        <ele>756.27</ele>
        <time>2018-09-11T06:34:16Z</time>
      </trkpt>
      <trkpt lat="41.909621" lon="0.646205">
        <ele>768.69</ele>
        <time>2018-09-11T06:34:56Z</time>
      </trkpt>
      <trkpt lat="41.909791" lon="0.646299">
        <ele>774.16</ele>
        <time>2018-09-11T06:35:18Z</time>
      </trkpt>
      <trkpt lat="41.909984" lon="0.646302">
        <ele>775.93</ele>
        <time>2018-09-11T06:35:30Z</time>
      </trkpt>
      <trkpt lat="41.910163" lon="0.646372">
        <ele>773.33</ele>
        <time>2018-09-11T06:35:42Z</time>
      </trkpt>
      <trkpt lat="41.910307" lon="0.646527">
        <ele>780.06</ele>
        <time>2018-09-11T06:35:52Z</time>
      </trkpt>
      <trkpt lat="41.910505" lon="0.646653">
        <ele>783.31</ele>
        <time>2018-09-11T06:36:02Z</time>
      </trkpt>
      <trkpt lat="41.910710" lon="0.646727">
        <ele>785.61</ele>
        <time>2018-09-11T06:36:14Z</time>
      </trkpt>
      <trkpt lat="41.910901" lon="0.646821">
        <ele>780.58</ele>
        <time>2018-09-11T06:36:24Z</time>
      </trkpt>
      <trkpt lat="41.911085" lon="0.646819">
        <ele>780.82</ele>
        <time>2018-09-11T06:36:36Z</time>
      </trkpt>
      <trkpt lat="41.911276" lon="0.646724">
        <ele>793.80</ele>
        <time>2018-09-11T06:36:52Z</time>
      </trkpt>
      <trkpt lat="41.911471" lon="0.646672">
        <ele>799.46</ele>
        <time>2018-09-11T06:37:36Z</time>
      </trkpt>
      <trkpt lat="41.911693" lon="0.646625">
        <ele>793.83</ele>
        <time>2018-09-11T06:37:50Z</time>
      </trkpt>
      <trkpt lat="41.911894" lon="0.646658">
        <ele>797.93</ele>
        <time>2018-09-11T06:38:04Z</time>
      </trkpt>
      <trkpt lat="41.912055" lon="0.646768">
        <ele>800.85</ele>
        <time>2018-09-11T06:38:18Z</time>
      </trkpt>
      <trkpt lat="41.912278" lon="0.646794">
        <ele>805.02</ele>
        <time>2018-09-11T06:38:28Z</time>
      </trkpt>
      <trkpt lat="41.912478" lon="0.646843">
        <ele>810.87</ele>
        <time>2018-09-11T06:38:42Z</time>
      </trkpt>
      <trkpt lat="41.912672" lon="0.646945">
        <ele>816.13</ele>
        <time>2018-09-11T06:38:54Z</time>
      </trkpt>
      <trkpt lat="41.912844" lon="0.647074">
        <ele>822.21</ele>
        <time>2018-09-11T06:39:08Z</time>
      </trkpt>
      <trkpt lat="41.913002" lon="0.647198">
        <ele>829.82</ele>
        <time>2018-09-11T06:39:18Z</time>
      </trkpt>
      <trkpt lat="41.913175" lon="0.647276">
        <ele>826.44</ele>
        <time>2018-09-11T06:39:26Z</time>
      </trkpt>
      <trkpt lat="41.913364" lon="0.647407">
        <ele>828.38</ele>
        <time>2018-09-11T06:39:36Z</time>
      </trkpt>
      <trkpt lat="41.913523" lon="0.647528">
        <ele>831.24</ele>
        <time>2018-09-11T06:39:46Z</time>
      </trkpt>
      <trkpt lat="41.913663" lon="0.647708">
        <ele>834.47</ele>
        <time>2018-09-11T06:39:54Z</time>
      </trkpt>
      <trkpt lat="41.913847" lon="0.647846">
        <ele>836.37</ele>
        <time>2018-09-11T06:40:06Z</time>
      </trkpt>
      <trkpt lat="41.914038" lon="0.647858">
        <ele>845.62</ele>
        <time>2018-09-11T06:40:18Z</time>
      </trkpt>
      <trkpt lat="41.914257" lon="0.647847">
        <ele>845.87</ele>
        <time>2018-09-11T06:40:28Z</time>
      </trkpt>
      <trkpt lat="41.914465" lon="0.647750">
        <ele>851.73</ele>
        <time>2018-09-11T06:40:40Z</time>
      </trkpt>
      <trkpt lat="41.914657" lon="0.647770">
        <ele>850.84</ele>
        <time>2018-09-11T06:40:48Z</time>
      </trkpt>
      <trkpt lat="41.914841" lon="0.647801">
        <ele>848.85</ele>
        <time>2018-09-11T06:40:58Z</time>
      </trkpt>
      <trkpt lat="41.915033" lon="0.647760">
        <ele>847.31</ele>
        <time>2018-09-11T06:41:14Z</time>
      </trkpt>
      <trkpt lat="41.915221" lon="0.647828">
        <ele>848.81</ele>
        <time>2018-09-11T06:41:26Z</time>
      </trkpt>
      <trkpt lat="41.915394" lon="0.647960">
        <ele>850.06</ele>
        <time>2018-09-11T06:41:38Z</time>
      </trkpt>
      <trkpt lat="41.915535" lon="0.648120">
        <ele>856.26</ele>
        <time>2018-09-11T06:41:52Z</time>
      </trkpt>
      <trkpt lat="41.915708" lon="0.648271">
        <ele>864.84</ele>
        <time>2018-09-11T06:42:06Z</time>
      </trkpt>
      <trkpt lat="41.915872" lon="0.648406">
        <ele>866.24</ele>
        <time>2018-09-11T06:42:16Z</time>
      </trkpt>
      <trkpt lat="41.915980" lon="0.648628">
        <ele>864.17</ele>
        <time>2018-09-11T06:42:28Z</time>
      </trkpt>
      <trkpt lat="41.916087" lon="0.648839">
        <ele>867.18</ele>
        <time>2018-09-11T06:42:42Z</time>
      </trkpt>
      <trkpt lat="41.916259" lon="0.648759">
        <ele>877.86</ele>
        <time>2018-09-11T06:42:52Z</time>
      </trkpt>
      <trkpt lat="41.916459" lon="0.648689">
        <ele>883.19</ele>
        <time>2018-09-11T06:43:04Z</time>
      </trkpt>
      <trkpt lat="41.916659" lon="0.648615">
        <ele>884.23</ele>
        <time>2018-09-11T06:43:18Z</time>
      </trkpt>
      <trkpt lat="41.916855" lon="0.648572">
        <ele>887.74</ele>
        <time>2018-09-11T06:43:26Z</time>
      </trkpt>
      <trkpt lat="41.917035" lon="0.648568">
        <ele>893.81</ele>
        <time>2018-09-11T06:43:52Z</time>
      </trkpt>
      <trkpt lat="41.917176" lon="0.648737">
        <ele>895.92</ele>
        <time>2018-09-11T06:44:08Z</time>
      </trkpt>
      <trkpt lat="41.917350" lon="0.648827">
        <ele>901.08</ele>
        <time>2018-09-11T06:44:24Z</time>
      </trkpt>
      <trkpt lat="41.917452" lon="0.649039">
        <ele>897.97</ele>
        <time>2018-09-11T06:44:34Z</time>
      </trkpt>
      <trkpt lat="41.917659" lon="0.649216">
        <ele>896.46</ele>
        <time>2018-09-11T06:44:48Z</time>
      </trkpt>
      <trkpt lat="41.917833" lon="0.649319">
        <ele>907.40</ele>
        <time>2018-09-11T06:45:02Z</time>
      </trkpt>
      <trkpt lat="41.918016" lon="0.649310">
        <ele>909.11</ele>
        <time>2018-09-11T06:45:12Z</time>
      </trkpt>
      <trkpt lat="41.918196" lon="0.649439">
        <ele>907.68</ele>
        <time>2018-09-11T06:45:22Z</time>
      </trkpt>
      <trkpt lat="41.918350" lon="0.649566">
        <ele>908.53</ele>
        <time>2018-09-11T06:45:30Z</time>
      </trkpt>
      <trkpt lat="41.918548" lon="0.649649">
        <ele>904.92</ele>
        <time>2018-09-11T06:45:42Z</time>
      </trkpt>
      <trkpt lat="41.918752" lon="0.649696">
        <ele>909.19</ele>
        <time>2018-09-11T06:45:54Z</time>
      </trkpt>
      <trkpt lat="41.918931" lon="0.649739">
        <ele>909.28</ele>
        <time>2018-09-11T06:46:04Z</time>
      </trkpt>
      <trkpt lat="41.919105" lon="0.649818">
        <ele>913.21</ele>
        <time>2018-09-11T06:46:16Z</time>
      </trkpt>
      <trkpt lat="41.919272" lon="0.649957">
        <ele>916.63</ele>
        <time>2018-09-11T06:46:26Z</time>
      </trkpt>
      <trkpt lat="41.919468" lon="0.650052">
        <ele>920.91</ele>
        <time>2018-09-11T06:46:36Z</time>
      </trkpt>
      <trkpt lat="41.919651" lon="0.650168">
        <ele>927.40</ele>
        <time>2018-09-11T06:46:50Z</time>
      </trkpt>
      <trkpt lat="41.919839" lon="0.650218">
        <ele>930.54</ele>
        <time>2018-09-11T06:47:10Z</time>
      </trkpt>
      <trkpt lat="41.920022" lon="0.650367">
        <ele>929.99</ele>
        <time>2018-09-11T06:47:22Z</time>
      </trkpt>
      <trkpt lat="41.920207" lon="0.650399">
        <ele>926.02</ele>
        <time>2018-09-11T06:47:34Z</time>
      </trkpt>
      <trkpt lat="41.920388" lon="0.650485">
        <ele>922.64</ele>
        <time>2018-09-11T06:50:52Z</time>
      </trkpt>
      <trkpt lat="41.920387" lon="0.650509">
        <ele>928.84</ele>
        <time>2018-09-11T06:51:08Z</time>
      </trkpt>
      <trkpt lat="41.920107" lon="0.650855">
        <ele>937.39</ele>
        <time>2018-09-11T06:51:24Z</time>
      </trkpt>
      <trkpt lat="41.919953" lon="0.650986">
        <ele>944.05</ele>
        <time>2018-09-11T06:51:42Z</time>
      </trkpt>
      <trkpt lat="41.919803" lon="0.651122">
        <ele>945.71</ele>
        <time>2018-09-11T06:51:54Z</time>
      </trkpt>
      <trkpt lat="41.919665" lon="0.651335">
        <ele>950.21</ele>
        <time>2018-09-11T06:52:10Z</time>
      </trkpt>
      <trkpt lat="41.919489" lon="0.651401">
        <ele>951.63</ele>
        <time>2018-09-11T06:52:24Z</time>
      </trkpt>
      <trkpt lat="41.919286" lon="0.651480">
        <ele>955.41</ele>
        <time>2018-09-11T06:52:46Z</time>
      </trkpt>
      <trkpt lat="41.919108" lon="0.651521">
        <ele>955.49</ele>
        <time>2018-09-11T06:53:04Z</time>
      </trkpt>
      <trkpt lat="41.918912" lon="0.651570">
        <ele>956.72</ele>
        <time>2018-09-11T06:53:30Z</time>
      </trkpt>
      <trkpt lat="41.918748" lon="0.651750">
        <ele>951.35</ele>
        <time>2018-09-11T06:53:52Z</time>
      </trkpt>
      <trkpt lat="41.918602" lon="0.651903">
        <ele>958.37</ele>
        <time>2018-09-11T06:54:10Z</time>
      </trkpt>
      <trkpt lat="41.918414" lon="0.651922">
        <ele>960.38</ele>
        <time>2018-09-11T06:54:24Z</time>
      </trkpt>
      <trkpt lat="41.918317" lon="0.652126">
        <ele>965.37</ele>
        <time>2018-09-11T06:54:40Z</time>
      </trkpt>
      <trkpt lat="41.918401" lon="0.652341">
        <ele>969.42</ele>
        <time>2018-09-11T06:54:58Z</time>
      </trkpt>
      <trkpt lat="41.918265" lon="0.652509">
        <ele>965.58</ele>
        <time>2018-09-11T06:55:16Z</time>
      </trkpt>
      <trkpt lat="41.918241" lon="0.652764">
        <ele>966.15</ele>
        <time>2018-09-11T06:55:42Z</time>
      </trkpt>
      <trkpt lat="41.918243" lon="0.653010">
        <ele>961.21</ele>
        <time>2018-09-11T06:56:02Z</time>
      </trkpt>
      <trkpt lat="41.918171" lon="0.653239">
        <ele>965.01</ele>
        <time>2018-09-11T06:56:20Z</time>
      </trkpt>
      <trkpt lat="41.918064" lon="0.653469">
        <ele>966.55</ele>
        <time>2018-09-11T06:56:44Z</time>
      </trkpt>
      <trkpt lat="41.917910" lon="0.653627">
        <ele>966.85</ele>
        <time>2018-09-11T06:56:58Z</time>
      </trkpt>
      <trkpt lat="41.917833" lon="0.653866">
        <ele>961.12</ele>
        <time>2018-09-11T06:57:12Z</time>
      </trkpt>
      <trkpt lat="41.917973" lon="0.654028">
        <ele>965.46</ele>
        <time>2018-09-11T06:57:26Z</time>
      </trkpt>
      <trkpt lat="41.918097" lon="0.654235">
        <ele>973.06</ele>
        <time>2018-09-11T06:57:46Z</time>
      </trkpt>
      <trkpt lat="41.918260" lon="0.654388">
        <ele>978.71</ele>
        <time>2018-09-11T06:58:06Z</time>
      </trkpt>
      <trkpt lat="41.918444" lon="0.654492">
        <ele>982.27</ele>
        <time>2018-09-11T06:58:24Z</time>
      </trkpt>
      <trkpt lat="41.918572" lon="0.654670">
        <ele>980.91</ele>
        <time>2018-09-11T06:58:44Z</time>
      </trkpt>
      <trkpt lat="41.918746" lon="0.654819">
        <ele>982.54</ele>
        <time>2018-09-11T06:59:06Z</time>
      </trkpt>
      <trkpt lat="41.918925" lon="0.654880">
        <ele>995.08</ele>
        <time>2018-09-11T06:59:42Z</time>
      </trkpt>
      <trkpt lat="41.919103" lon="0.654804">
        <ele>999.21</ele>
        <time>2018-09-11T07:00:12Z</time>
      </trkpt>
      <trkpt lat="41.919274" lon="0.654899">
        <ele>1001.61</ele>
        <time>2018-09-11T07:00:58Z</time>
      </trkpt>
      <trkpt lat="41.919434" lon="0.655013">
        <ele>1008.42</ele>
        <time>2018-09-11T07:01:24Z</time>
      </trkpt>
      <trkpt lat="41.919510" lon="0.655240">
        <ele>1012.96</ele>
        <time>2018-09-11T07:02:08Z</time>
      </trkpt>
      <trkpt lat="41.919469" lon="0.655481">
        <ele>1008.58</ele>
        <time>2018-09-11T07:03:12Z</time>
      </trkpt>
      <trkpt lat="41.919610" lon="0.655677">
        <ele>1011.47</ele>
        <time>2018-09-11T07:03:44Z</time>
      </trkpt>
      <trkpt lat="41.919779" lon="0.655794">
        <ele>1018.68</ele>
        <time>2018-09-11T07:04:24Z</time>
      </trkpt>
      <trkpt lat="41.919833" lon="0.656042">
        <ele>1019.12</ele>
        <time>2018-09-11T07:04:52Z</time>
      </trkpt>
      <trkpt lat="41.919750" lon="0.656262">
        <ele>1016.26</ele>
        <time>2018-09-11T07:05:30Z</time>
      </trkpt>
      <trkpt lat="41.919881" lon="0.656474">
        <ele>1016.92</ele>
        <time>2018-09-11T07:05:44Z</time>
      </trkpt>
      <trkpt lat="41.919946" lon="0.656712">
        <ele>1019.97</ele>
        <time>2018-09-11T07:06:26Z</time>
      </trkpt>
      <trkpt lat="41.920086" lon="0.656883">
        <ele>1024.42</ele>
        <time>2018-09-11T07:07:10Z</time>
      </trkpt>
      <trkpt lat="41.920224" lon="0.657061">
        <ele>1026.81</ele>
        <time>2018-09-11T07:07:42Z</time>
      </trkpt>
      <trkpt lat="41.920371" lon="0.657221">
        <ele>1031.62</ele>
        <time>2018-09-11T07:08:47Z</time>
      </trkpt>
      <trkpt lat="41.920206" lon="0.657059">
        <ele>1026.43</ele>
        <time>2018-09-11T07:09:47Z</time>
      </trkpt>
      <trkpt lat="41.920118" lon="0.657278">
        <ele>1022.05</ele>
        <time>2018-09-11T07:10:29Z</time>
      </trkpt>
      <trkpt lat="41.920261" lon="0.657462">
        <ele>1030.38</ele>
        <time>2018-09-11T07:11:37Z</time>
      </trkpt>
      <trkpt lat="41.920143" lon="0.657278">
        <ele>1021.46</ele>
        <time>2018-09-11T07:11:57Z</time>
      </trkpt>
      <trkpt lat="41.920021" lon="0.657093">
        <ele>1025.83</ele>
        <time>2018-09-11T07:12:31Z</time>
      </trkpt>
      <trkpt lat="41.919883" lon="0.656936">
        <ele>1022.78</ele>
        <time>2018-09-11T07:13:37Z</time>
      </trkpt>
      <trkpt lat="41.919939" lon="0.656691">
        <ele>1023.82</ele>
        <time>2018-09-11T07:14:07Z</time>
      </trkpt>
      <trkpt lat="41.920100" lon="0.656523">
        <ele>1027.89</ele>
        <time>2018-09-11T07:14:51Z</time>
      </trkpt>
      <trkpt lat="41.919952" lon="0.656374">
        <ele>1017.52</ele>
        <time>2018-09-11T07:15:13Z</time>
      </trkpt>
      <trkpt lat="41.919942" lon="0.656125">
        <ele>1013.46</ele>
        <time>2018-09-11T07:15:55Z</time>
      </trkpt>
      <trkpt lat="41.919802" lon="0.655955">
        <ele>1019.71</ele>
        <time>2018-09-11T07:16:29Z</time>
      </trkpt>
      <trkpt lat="41.919793" lon="0.655676">
        <ele>1018.62</ele>
        <time>2018-09-11T07:16:57Z</time>
      </trkpt>
      <trkpt lat="41.919717" lon="0.655436">
        <ele>1013.70</ele>
        <time>2018-09-11T07:17:19Z</time>
      </trkpt>
      <trkpt lat="41.919702" lon="0.655193">
        <ele>1014.15</ele>
        <time>2018-09-11T07:18:17Z</time>
      </trkpt>
      <trkpt lat="41.919749" lon="0.654912">
        <ele>1009.88</ele>
        <time>2018-09-11T07:18:41Z</time>
      </trkpt>
      <trkpt lat="41.919747" lon="0.654657">
        <ele>1012.17</ele>
        <time>2018-09-11T07:19:19Z</time>
      </trkpt>
      <trkpt lat="41.919764" lon="0.654406">
        <ele>1012.22</ele>
        <time>2018-09-11T07:19:49Z</time>
      </trkpt>
      <trkpt lat="41.919704" lon="0.654159">
        <ele>1005.68</ele>
        <time>2018-09-11T07:20:11Z</time>
      </trkpt>
      <trkpt lat="41.919678" lon="0.653914">
        <ele>1003.29</ele>
        <time>2018-09-11T07:20:41Z</time>
      </trkpt>
      <trkpt lat="41.919519" lon="0.653780">
        <ele>995.88</ele>
        <time>2018-09-11T07:21:07Z</time>
      </trkpt>
      <trkpt lat="41.919392" lon="0.653990">
        <ele>997.85</ele>
        <time>2018-09-11T07:21:19Z</time>
      </trkpt>
      <trkpt lat="41.919250" lon="0.653840">
        <ele>1002.68</ele>
        <time>2018-09-11T07:21:41Z</time>
      </trkpt>
      <trkpt lat="41.919094" lon="0.653977">
        <ele>1000.91</ele>
        <time>2018-09-11T07:22:03Z</time>
      </trkpt>
      <trkpt lat="41.918908" lon="0.653986">
        <ele>990.93</ele>
        <time>2018-09-11T07:22:41Z</time>
      </trkpt>
      <trkpt lat="41.918717" lon="0.654057">
        <ele>983.14</ele>
        <time>2018-09-11T07:22:57Z</time>
      </trkpt>
      <trkpt lat="41.918522" lon="0.654043">
        <ele>975.47</ele>
        <time>2018-09-11T07:23:23Z</time>
      </trkpt>
      <trkpt lat="41.918352" lon="0.654132">
        <ele>966.02</ele>
        <time>2018-09-11T07:23:47Z</time>
      </trkpt>
      <trkpt lat="41.918169" lon="0.654132">
        <ele>973.82</ele>
        <time>2018-09-11T07:24:13Z</time>
      </trkpt>
      <trkpt lat="41.917995" lon="0.654022">
        <ele>965.39</ele>
        <time>2018-09-11T07:24:37Z</time>
      </trkpt>
      <trkpt lat="41.917838" lon="0.653882">
        <ele>961.56</ele>
        <time>2018-09-11T07:25:01Z</time>
      </trkpt>
      <trkpt lat="41.917928" lon="0.653667">
        <ele>956.73</ele>
        <time>2018-09-11T07:25:19Z</time>
      </trkpt>
      <trkpt lat="41.918064" lon="0.653501">
        <ele>966.45</ele>
        <time>2018-09-11T07:25:33Z</time>
      </trkpt>
      <trkpt lat="41.918115" lon="0.653255">
        <ele>968.08</ele>
        <time>2018-09-11T07:25:49Z</time>
      </trkpt>
      <trkpt lat="41.918201" lon="0.653040">
        <ele>966.53</ele>
        <time>2018-09-11T07:26:03Z</time>
      </trkpt>
      <trkpt lat="41.918201" lon="0.652767">
        <ele>962.61</ele>
        <time>2018-09-11T07:26:23Z</time>
      </trkpt>
      <trkpt lat="41.918124" lon="0.652539">
        <ele>951.32</ele>
        <time>2018-09-11T07:26:51Z</time>
      </trkpt>
      <trkpt lat="41.918180" lon="0.652298">
        <ele>952.36</ele>
        <time>2018-09-11T07:27:09Z</time>
      </trkpt>
      <trkpt lat="41.918264" lon="0.652059">
        <ele>955.78</ele>
        <time>2018-09-11T07:27:31Z</time>
      </trkpt>
      <trkpt lat="41.918364" lon="0.651963">
        <ele>952.17</ele>
        <time>2018-09-11T07:28:18Z</time>
      </trkpt>
      <trkpt lat="41.918553" lon="0.651937">
        <ele>955.04</ele>
        <time>2018-09-11T07:28:38Z</time>
      </trkpt>
      <trkpt lat="41.918728" lon="0.651817">
        <ele>954.65</ele>
        <time>2018-09-11T07:28:54Z</time>
      </trkpt>
      <trkpt lat="41.918833" lon="0.651606">
        <ele>957.08</ele>
        <time>2018-09-11T07:29:12Z</time>
      </trkpt>
      <trkpt lat="41.919005" lon="0.651486">
        <ele>955.16</ele>
        <time>2018-09-11T07:29:34Z</time>
      </trkpt>
      <trkpt lat="41.919189" lon="0.651459">
        <ele>954.88</ele>
        <time>2018-09-11T07:29:58Z</time>
      </trkpt>
      <trkpt lat="41.919381" lon="0.651384">
        <ele>953.52</ele>
        <time>2018-09-11T07:31:02Z</time>
      </trkpt>
      <trkpt lat="41.919655" lon="0.651251">
        <ele>942.99</ele>
        <time>2018-09-11T07:35:19Z</time>
      </trkpt>
      <trkpt lat="41.919766" lon="0.651055">
        <ele>932.93</ele>
        <time>2018-09-11T07:35:43Z</time>
      </trkpt>
      <trkpt lat="41.919956" lon="0.650952">
        <ele>929.40</ele>
        <time>2018-09-11T07:36:05Z</time>
      </trkpt>
      <trkpt lat="41.920124" lon="0.650854">
        <ele>920.09</ele>
        <time>2018-09-11T07:36:23Z</time>
      </trkpt>
      <trkpt lat="41.920251" lon="0.650677">
        <ele>924.84</ele>
        <time>2018-09-11T07:36:41Z</time>
      </trkpt>
      <trkpt lat="41.920492" lon="0.650217">
        <ele>925.32</ele>
        <time>2018-09-11T07:40:29Z</time>
      </trkpt>
      <trkpt lat="41.920676" lon="0.650310">
        <ele>920.75</ele>
        <time>2018-09-11T07:40:47Z</time>
      </trkpt>
      <trkpt lat="41.920868" lon="0.650346">
        <ele>918.31</ele>
        <time>2018-09-11T07:41:01Z</time>
      </trkpt>
      <trkpt lat="41.921056" lon="0.650276">
        <ele>915.31</ele>
        <time>2018-09-11T07:41:15Z</time>
      </trkpt>
      <trkpt lat="41.921042" lon="0.650026">
        <ele>911.94</ele>
        <time>2018-09-11T07:41:27Z</time>
      </trkpt>
      <trkpt lat="41.921106" lon="0.649774">
        <ele>913.11</ele>
        <time>2018-09-11T07:41:37Z</time>
      </trkpt>
      <trkpt lat="41.921086" lon="0.649482">
        <ele>918.57</ele>
        <time>2018-09-11T07:41:51Z</time>
      </trkpt>
      <trkpt lat="41.921140" lon="0.649244">
        <ele>914.78</ele>
        <time>2018-09-11T07:42:07Z</time>
      </trkpt>
      <trkpt lat="41.921075" lon="0.649017">
        <ele>925.15</ele>
        <time>2018-09-11T07:42:23Z</time>
      </trkpt>
      <trkpt lat="41.921054" lon="0.648774">
        <ele>919.13</ele>
        <time>2018-09-11T07:42:35Z</time>
      </trkpt>
      <trkpt lat="41.921085" lon="0.648495">
        <ele>918.05</ele>
        <time>2018-09-11T07:42:45Z</time>
      </trkpt>
      <trkpt lat="41.921110" lon="0.648173">
        <ele>922.14</ele>
        <time>2018-09-11T07:42:57Z</time>
      </trkpt>
      <trkpt lat="41.921086" lon="0.647920">
        <ele>923.66</ele>
        <time>2018-09-11T07:43:13Z</time>
      </trkpt>
      <trkpt lat="41.921223" lon="0.647750">
        <ele>926.73</ele>
        <time>2018-09-11T07:43:35Z</time>
      </trkpt>
      <trkpt lat="41.921345" lon="0.647983">
        <ele>929.41</ele>
        <time>2018-09-11T07:43:49Z</time>
      </trkpt>
      <trkpt lat="41.921402" lon="0.648233">
        <ele>931.81</ele>
        <time>2018-09-11T07:44:01Z</time>
      </trkpt>
      <trkpt lat="41.921524" lon="0.648461">
        <ele>937.80</ele>
        <time>2018-09-11T07:44:15Z</time>
      </trkpt>
      <trkpt lat="41.921656" lon="0.648682">
        <ele>940.92</ele>
        <time>2018-09-11T07:44:27Z</time>
      </trkpt>
      <trkpt lat="41.921787" lon="0.648872">
        <ele>941.72</ele>
        <time>2018-09-11T07:44:39Z</time>
      </trkpt>
      <trkpt lat="41.921899" lon="0.649092">
        <ele>940.01</ele>
        <time>2018-09-11T07:44:51Z</time>
      </trkpt>
      <trkpt lat="41.921989" lon="0.649338">
        <ele>939.18</ele>
        <time>2018-09-11T07:45:05Z</time>
      </trkpt>
      <trkpt lat="41.922056" lon="0.649567">
        <ele>943.77</ele>
        <time>2018-09-11T07:45:17Z</time>
      </trkpt>
      <trkpt lat="41.922144" lon="0.649816">
        <ele>945.17</ele>
        <time>2018-09-11T07:45:29Z</time>
      </trkpt>
      <trkpt lat="41.922144" lon="0.650085">
        <ele>947.03</ele>
        <time>2018-09-11T07:45:41Z</time>
      </trkpt>
      <trkpt lat="41.922158" lon="0.650341">
        <ele>951.11</ele>
        <time>2018-09-11T07:45:53Z</time>
      </trkpt>
      <trkpt lat="41.922205" lon="0.650610">
        <ele>953.28</ele>
        <time>2018-09-11T07:46:05Z</time>
      </trkpt>
      <trkpt lat="41.922266" lon="0.650871">
        <ele>952.41</ele>
        <time>2018-09-11T07:46:17Z</time>
      </trkpt>
      <trkpt lat="41.922324" lon="0.651125">
        <ele>955.31</ele>
        <time>2018-09-11T07:46:29Z</time>
      </trkpt>
      <trkpt lat="41.922371" lon="0.651389">
        <ele>958.78</ele>
        <time>2018-09-11T07:46:41Z</time>
      </trkpt>
      <trkpt lat="41.922439" lon="0.651636">
        <ele>955.64</ele>
        <time>2018-09-11T07:46:53Z</time>
      </trkpt>
      <trkpt lat="41.922480" lon="0.651908">
        <ele>959.55</ele>
        <time>2018-09-11T07:47:03Z</time>
      </trkpt>
      <trkpt lat="41.922548" lon="0.652169">
        <ele>963.44</ele>
        <time>2018-09-11T07:47:15Z</time>
      </trkpt>
      <trkpt lat="41.922557" lon="0.652430">
        <ele>970.76</ele>
        <time>2018-09-11T07:47:29Z</time>
      </trkpt>
      <trkpt lat="41.922608" lon="0.652668">
        <ele>968.38</ele>
        <time>2018-09-11T07:47:39Z</time>
      </trkpt>
      <trkpt lat="41.922665" lon="0.652916">
        <ele>971.12</ele>
        <time>2018-09-11T07:47:55Z</time>
      </trkpt>
      <trkpt lat="41.922695" lon="0.653191">
        <ele>965.88</ele>
        <time>2018-09-11T07:48:07Z</time>
      </trkpt>
      <trkpt lat="41.922742" lon="0.653431">
        <ele>966.03</ele>
        <time>2018-09-11T07:48:17Z</time>
      </trkpt>
      <trkpt lat="41.922761" lon="0.653689">
        <ele>966.85</ele>
        <time>2018-09-11T07:48:27Z</time>
      </trkpt>
      <trkpt lat="41.922813" lon="0.653926">
        <ele>969.31</ele>
        <time>2018-09-11T07:48:41Z</time>
      </trkpt>
      <trkpt lat="41.922894" lon="0.654178">
        <ele>973.41</ele>
        <time>2018-09-11T07:48:53Z</time>
      </trkpt>
      <trkpt lat="41.922939" lon="0.654453">
        <ele>975.53</ele>
        <time>2018-09-11T07:49:07Z</time>
      </trkpt>
      <trkpt lat="41.922986" lon="0.654690">
        <ele>976.73</ele>
        <time>2018-09-11T07:49:27Z</time>
      </trkpt>
      <trkpt lat="41.923003" lon="0.654946">
        <ele>979.98</ele>
        <time>2018-09-11T07:49:41Z</time>
      </trkpt>
      <trkpt lat="41.923025" lon="0.655196">
        <ele>983.44</ele>
        <time>2018-09-11T07:49:53Z</time>
      </trkpt>
      <trkpt lat="41.923028" lon="0.655469">
        <ele>983.13</ele>
        <time>2018-09-11T07:50:07Z</time>
      </trkpt>
      <trkpt lat="41.923072" lon="0.655714">
        <ele>988.51</ele>
        <time>2018-09-11T07:50:19Z</time>
      </trkpt>
      <trkpt lat="41.923043" lon="0.655974">
        <ele>989.76</ele>
        <time>2018-09-11T07:50:31Z</time>
      </trkpt>
      <trkpt lat="41.923069" lon="0.656238">
        <ele>992.35</ele>
        <time>2018-09-11T07:50:47Z</time>
      </trkpt>
      <trkpt lat="41.923226" lon="0.656108">
        <ele>993.34</ele>
        <time>2018-09-11T07:51:01Z</time>
      </trkpt>
      <trkpt lat="41.923367" lon="0.655923">
        <ele>991.26</ele>
        <time>2018-09-11T07:51:15Z</time>
      </trkpt>
      <trkpt lat="41.923523" lon="0.655729">
        <ele>990.91</ele>
        <time>2018-09-11T07:51:29Z</time>
      </trkpt>
      <trkpt lat="41.923712" lon="0.655695">
        <ele>995.33</ele>
        <time>2018-09-11T07:51:47Z</time>
      </trkpt>
      <trkpt lat="41.923798" lon="0.655482">
        <ele>997.51</ele>
        <time>2018-09-11T07:52:07Z</time>
      </trkpt>
      <trkpt lat="41.923903" lon="0.655249">
        <ele>995.08</ele>
        <time>2018-09-11T07:53:07Z</time>
      </trkpt>
      <trkpt lat="41.923861" lon="0.655511">
        <ele>996.57</ele>
        <time>2018-09-11T07:53:43Z</time>
      </trkpt>
      <trkpt lat="41.923745" lon="0.655705">
        <ele>1002.96</ele>
        <time>2018-09-11T07:53:59Z</time>
      </trkpt>
      <trkpt lat="41.923566" lon="0.655768">
        <ele>1000.67</ele>
        <time>2018-09-11T07:54:11Z</time>
      </trkpt>
      <trkpt lat="41.923401" lon="0.655909">
        <ele>997.55</ele>
        <time>2018-09-11T07:54:27Z</time>
      </trkpt>
      <trkpt lat="41.923264" lon="0.656081">
        <ele>993.23</ele>
        <time>2018-09-11T07:54:49Z</time>
      </trkpt>
      <trkpt lat="41.923111" lon="0.656234">
        <ele>988.87</ele>
        <time>2018-09-11T07:55:07Z</time>
      </trkpt>
      <trkpt lat="41.923187" lon="0.656455">
        <ele>989.96</ele>
        <time>2018-09-11T07:55:23Z</time>
      </trkpt>
      <trkpt lat="41.923237" lon="0.656717">
        <ele>984.09</ele>
        <time>2018-09-11T07:55:45Z</time>
      </trkpt>
      <trkpt lat="41.923128" lon="0.656939">
        <ele>980.71</ele>
        <time>2018-09-11T07:55:59Z</time>
      </trkpt>
      <trkpt lat="41.923120" lon="0.657209">
        <ele>978.62</ele>
        <time>2018-09-11T07:56:15Z</time>
      </trkpt>
      <trkpt lat="41.923149" lon="0.657448">
        <ele>980.91</ele>
        <time>2018-09-11T07:56:33Z</time>
      </trkpt>
      <trkpt lat="41.923189" lon="0.657700">
        <ele>980.06</ele>
        <time>2018-09-11T07:56:49Z</time>
      </trkpt>
      <trkpt lat="41.923227" lon="0.657953">
        <ele>978.07</ele>
        <time>2018-09-11T07:57:05Z</time>
      </trkpt>
      <trkpt lat="41.923366" lon="0.658188">
        <ele>978.18</ele>
        <time>2018-09-11T07:57:15Z</time>
      </trkpt>
      <trkpt lat="41.923401" lon="0.658448">
        <ele>977.05</ele>
        <time>2018-09-11T07:57:31Z</time>
      </trkpt>
      <trkpt lat="41.923320" lon="0.658695">
        <ele>973.61</ele>
        <time>2018-09-11T07:57:47Z</time>
      </trkpt>
      <trkpt lat="41.923419" lon="0.658913">
        <ele>969.86</ele>
        <time>2018-09-11T07:58:03Z</time>
      </trkpt>
      <trkpt lat="41.923628" lon="0.658938">
        <ele>966.45</ele>
        <time>2018-09-11T07:58:21Z</time>
      </trkpt>
      <trkpt lat="41.923800" lon="0.659056">
        <ele>967.26</ele>
        <time>2018-09-11T07:58:33Z</time>
      </trkpt>
      <trkpt lat="41.923990" lon="0.659045">
        <ele>966.46</ele>
        <time>2018-09-11T07:58:49Z</time>
      </trkpt>
      <trkpt lat="41.924169" lon="0.659140">
        <ele>964.61</ele>
        <time>2018-09-11T07:59:07Z</time>
      </trkpt>
      <trkpt lat="41.924339" lon="0.659245">
        <ele>961.61</ele>
        <time>2018-09-11T07:59:25Z</time>
      </trkpt>
      <trkpt lat="41.924371" lon="0.659507">
        <ele>961.55</ele>
        <time>2018-09-11T07:59:41Z</time>
      </trkpt>
      <trkpt lat="41.924502" lon="0.659739">
        <ele>961.25</ele>
        <time>2018-09-11T07:59:57Z</time>
      </trkpt>
      <trkpt lat="41.924630" lon="0.659916">
        <ele>962.06</ele>
        <time>2018-09-11T08:00:07Z</time>
      </trkpt>
      <trkpt lat="41.924701" lon="0.660166">
        <ele>963.93</ele>
        <time>2018-09-11T08:00:25Z</time>
      </trkpt>
      <trkpt lat="41.924804" lon="0.660365">
        <ele>968.14</ele>
        <time>2018-09-11T08:00:37Z</time>
      </trkpt>
      <trkpt lat="41.924939" lon="0.660573">
        <ele>969.43</ele>
        <time>2018-09-11T08:00:49Z</time>
      </trkpt>
      <trkpt lat="41.925100" lon="0.660700">
        <ele>962.78</ele>
        <time>2018-09-11T08:00:59Z</time>
      </trkpt>
      <trkpt lat="41.925231" lon="0.660915">
        <ele>962.08</ele>
        <time>2018-09-11T08:01:19Z</time>
      </trkpt>
      <trkpt lat="41.925236" lon="0.661157">
        <ele>962.72</ele>
        <time>2018-09-11T08:01:37Z</time>
      </trkpt>
      <trkpt lat="41.925331" lon="0.661380">
        <ele>961.33</ele>
        <time>2018-09-11T08:02:08Z</time>
      </trkpt>
      <trkpt lat="41.925366" lon="0.661637">
        <ele>963.71</ele>
        <time>2018-09-11T08:02:22Z</time>
      </trkpt>
      <trkpt lat="41.925533" lon="0.661789">
        <ele>961.12</ele>
        <time>2018-09-11T08:02:40Z</time>
      </trkpt>
      <trkpt lat="41.925717" lon="0.661726">
        <ele>958.63</ele>
        <time>2018-09-11T08:02:56Z</time>
      </trkpt>
      <trkpt lat="41.925896" lon="0.661795">
        <ele>948.90</ele>
        <time>2018-09-11T08:03:24Z</time>
      </trkpt>
      <trkpt lat="41.926077" lon="0.661798">
        <ele>950.79</ele>
        <time>2018-09-11T08:03:46Z</time>
      </trkpt>
      <trkpt lat="41.926194" lon="0.662003">
        <ele>940.73</ele>
        <time>2018-09-11T08:04:16Z</time>
      </trkpt>
      <trkpt lat="41.926264" lon="0.662232">
        <ele>936.64</ele>
        <time>2018-09-11T08:04:40Z</time>
      </trkpt>
      <trkpt lat="41.926303" lon="0.662475">
        <ele>932.52</ele>
        <time>2018-09-11T08:05:00Z</time>
      </trkpt>
      <trkpt lat="41.926345" lon="0.662713">
        <ele>929.38</ele>
        <time>2018-09-11T08:05:22Z</time>
      </trkpt>
      <trkpt lat="41.926322" lon="0.662972">
        <ele>927.35</ele>
        <time>2018-09-11T08:05:40Z</time>
      </trkpt>
      <trkpt lat="41.926326" lon="0.663233">
        <ele>919.33</ele>
        <time>2018-09-11T08:05:54Z</time>
      </trkpt>
      <trkpt lat="41.926400" lon="0.663479">
        <ele>918.39</ele>
        <time>2018-09-11T08:06:12Z</time>
      </trkpt>
      <trkpt lat="41.926365" lon="0.663754">
        <ele>908.71</ele>
        <time>2018-09-11T08:06:34Z</time>
      </trkpt>
      <trkpt lat="41.926471" lon="0.663950">
        <ele>909.42</ele>
        <time>2018-09-11T08:06:48Z</time>
      </trkpt>
      <trkpt lat="41.926524" lon="0.664223">
        <ele>907.52</ele>
        <time>2018-09-11T08:07:08Z</time>
      </trkpt>
      <trkpt lat="41.926541" lon="0.664490">
        <ele>899.64</ele>
        <time>2018-09-11T08:07:24Z</time>
      </trkpt>
      <trkpt lat="41.926544" lon="0.664748">
        <ele>893.74</ele>
        <time>2018-09-11T08:07:40Z</time>
      </trkpt>
      <trkpt lat="41.926591" lon="0.664993">
        <ele>891.93</ele>
        <time>2018-09-11T08:07:58Z</time>
      </trkpt>
      <trkpt lat="41.926623" lon="0.665270">
        <ele>896.63</ele>
        <time>2018-09-11T08:08:14Z</time>
      </trkpt>
      <trkpt lat="41.926538" lon="0.665564">
        <ele>888.59</ele>
        <time>2018-09-11T08:08:30Z</time>
      </trkpt>
      <trkpt lat="41.926507" lon="0.665856">
        <ele>882.54</ele>
        <time>2018-09-11T08:08:48Z</time>
      </trkpt>
      <trkpt lat="41.926514" lon="0.666106">
        <ele>882.51</ele>
        <time>2018-09-11T08:09:02Z</time>
      </trkpt>
      <trkpt lat="41.926542" lon="0.666364">
        <ele>883.53</ele>
        <time>2018-09-11T08:09:18Z</time>
      </trkpt>
      <trkpt lat="41.926576" lon="0.666619">
        <ele>883.83</ele>
        <time>2018-09-11T08:09:42Z</time>
      </trkpt>
      <trkpt lat="41.926714" lon="0.666794">
        <ele>883.41</ele>
        <time>2018-09-11T08:09:56Z</time>
      </trkpt>
      <trkpt lat="41.926857" lon="0.666996">
        <ele>874.21</ele>
        <time>2018-09-11T08:10:18Z</time>
      </trkpt>
      <trkpt lat="41.926969" lon="0.667186">
        <ele>866.15</ele>
        <time>2018-09-11T08:10:34Z</time>
      </trkpt>
      <trkpt lat="41.927050" lon="0.667431">
        <ele>866.05</ele>
        <time>2018-09-11T08:10:48Z</time>
      </trkpt>
      <trkpt lat="41.927156" lon="0.667665">
        <ele>865.87</ele>
        <time>2018-09-11T08:11:08Z</time>
      </trkpt>
      <trkpt lat="41.927124" lon="0.667923">
        <ele>859.74</ele>
        <time>2018-09-11T08:11:24Z</time>
      </trkpt>
      <trkpt lat="41.927059" lon="0.668149">
        <ele>858.53</ele>
        <time>2018-09-11T08:11:40Z</time>
      </trkpt>
      <trkpt lat="41.926950" lon="0.668355">
        <ele>856.40</ele>
        <time>2018-09-11T08:11:58Z</time>
      </trkpt>
      <trkpt lat="41.926865" lon="0.668603">
        <ele>853.42</ele>
        <time>2018-09-11T08:12:14Z</time>
      </trkpt>
      <trkpt lat="41.926740" lon="0.668804">
        <ele>849.55</ele>
        <time>2018-09-11T08:12:32Z</time>
      </trkpt>
      <trkpt lat="41.926650" lon="0.669015">
        <ele>838.97</ele>
        <time>2018-09-11T08:12:48Z</time>
      </trkpt>
      <trkpt lat="41.926591" lon="0.669247">
        <ele>842.02</ele>
        <time>2018-09-11T08:13:08Z</time>
      </trkpt>
      <trkpt lat="41.926671" lon="0.669488">
        <ele>834.21</ele>
        <time>2018-09-11T08:13:30Z</time>
      </trkpt>
      <trkpt lat="41.926805" lon="0.669674">
        <ele>835.81</ele>
        <time>2018-09-11T08:13:50Z</time>
      </trkpt>
      <trkpt lat="41.926817" lon="0.669930">
        <ele>826.68</ele>
        <time>2018-09-11T08:14:08Z</time>
      </trkpt>
      <trkpt lat="41.926940" lon="0.670144">
        <ele>821.92</ele>
        <time>2018-09-11T08:14:22Z</time>
      </trkpt>
      <trkpt lat="41.927000" lon="0.670379">
        <ele>816.22</ele>
        <time>2018-09-11T08:14:38Z</time>
      </trkpt>
      <trkpt lat="41.926974" lon="0.670622">
        <ele>814.89</ele>
        <time>2018-09-11T08:14:54Z</time>
      </trkpt>
      <trkpt lat="41.926959" lon="0.670868">
        <ele>815.18</ele>
        <time>2018-09-11T08:15:08Z</time>
      </trkpt>
      <trkpt lat="41.927003" lon="0.671109">
        <ele>808.87</ele>
        <time>2018-09-11T08:15:56Z</time>
      </trkpt>
      <trkpt lat="41.927117" lon="0.671299">
        <ele>806.37</ele>
        <time>2018-09-11T08:16:26Z</time>
      </trkpt>
      <trkpt lat="41.927289" lon="0.671188">
        <ele>800.14</ele>
        <time>2018-09-11T08:16:44Z</time>
      </trkpt>
      <trkpt lat="41.927397" lon="0.670988">
        <ele>795.39</ele>
        <time>2018-09-11T08:17:06Z</time>
      </trkpt>
      <trkpt lat="41.927510" lon="0.671178">
        <ele>790.26</ele>
        <time>2018-09-11T08:17:22Z</time>
      </trkpt>
      <trkpt lat="41.927607" lon="0.671413">
        <ele>785.31</ele>
        <time>2018-09-11T08:17:42Z</time>
      </trkpt>
      <trkpt lat="41.927741" lon="0.671241">
        <ele>786.12</ele>
        <time>2018-09-11T08:18:02Z</time>
      </trkpt>
      <trkpt lat="41.927918" lon="0.671183">
        <ele>780.59</ele>
        <time>2018-09-11T08:18:14Z</time>
      </trkpt>
      <trkpt lat="41.927924" lon="0.671429">
        <ele>782.82</ele>
        <time>2018-09-11T08:18:30Z</time>
      </trkpt>
      <trkpt lat="41.927990" lon="0.671664">
        <ele>772.26</ele>
        <time>2018-09-11T08:25:34Z</time>
      </trkpt>
      <trkpt lat="41.928031" lon="0.671904">
        <ele>763.07</ele>
        <time>2018-09-11T08:26:14Z</time>
      </trkpt>
      <trkpt lat="41.928216" lon="0.671949">
        <ele>763.67</ele>
        <time>2018-09-11T08:26:38Z</time>
      </trkpt>
      <trkpt lat="41.928328" lon="0.671738">
        <ele>761.15</ele>
        <time>2018-09-11T08:26:54Z</time>
      </trkpt>
      <trkpt lat="41.928435" lon="0.671501">
        <ele>765.46</ele>
        <time>2018-09-11T08:27:54Z</time>
      </trkpt>
      <trkpt lat="41.928346" lon="0.671715">
        <ele>767.03</ele>
        <time>2018-09-11T08:28:10Z</time>
      </trkpt>
      <trkpt lat="41.928269" lon="0.671935">
        <ele>763.96</ele>
        <time>2018-09-11T08:28:44Z</time>
      </trkpt>
      <trkpt lat="41.928282" lon="0.672179">
        <ele>749.48</ele>
        <time>2018-09-11T08:29:36Z</time>
      </trkpt>
      <trkpt lat="41.928447" lon="0.672279">
        <ele>746.41</ele>
        <time>2018-09-11T08:29:54Z</time>
      </trkpt>
      <trkpt lat="41.928621" lon="0.672359">
        <ele>740.71</ele>
        <time>2018-09-11T08:30:29Z</time>
      </trkpt>
      <trkpt lat="41.928794" lon="0.672451">
        <ele>730.31</ele>
        <time>2018-09-11T08:31:04Z</time>
      </trkpt>
      <trkpt lat="41.928944" lon="0.672607">
        <ele>731.57</ele>
        <time>2018-09-11T08:31:22Z</time>
      </trkpt>
      <trkpt lat="41.929128" lon="0.672542">
        <ele>724.53</ele>
        <time>2018-09-11T08:31:42Z</time>
      </trkpt>
      <trkpt lat="41.929303" lon="0.672658">
        <ele>724.16</ele>
        <time>2018-09-11T08:32:02Z</time>
      </trkpt>
      <trkpt lat="41.929146" lon="0.672789">
        <ele>725.77</ele>
        <time>2018-09-11T08:32:16Z</time>
      </trkpt>
      <trkpt lat="41.928987" lon="0.672932">
        <ele>716.26</ele>
        <time>2018-09-11T08:32:38Z</time>
      </trkpt>
      <trkpt lat="41.929188" lon="0.672965">
        <ele>708.79</ele>
        <time>2018-09-11T08:32:54Z</time>
      </trkpt>
      <trkpt lat="41.929378" lon="0.672952">
        <ele>711.84</ele>
        <time>2018-09-11T08:33:08Z</time>
      </trkpt>
      <trkpt lat="41.929557" lon="0.673015">
        <ele>703.74</ele>
        <time>2018-09-11T08:33:30Z</time>
      </trkpt>
      <trkpt lat="41.929759" lon="0.673042">
        <ele>703.59</ele>
        <time>2018-09-11T08:33:48Z</time>
      </trkpt>
      <trkpt lat="41.929943" lon="0.673054">
        <ele>698.41</ele>
        <time>2018-09-11T08:34:06Z</time>
      </trkpt>
      <trkpt lat="41.930138" lon="0.673074">
        <ele>700.02</ele>
        <time>2018-09-11T08:34:22Z</time>
      </trkpt>
      <trkpt lat="41.930314" lon="0.673133">
        <ele>695.99</ele>
        <time>2018-09-11T08:34:36Z</time>
      </trkpt>
      <trkpt lat="41.930511" lon="0.673202">
        <ele>691.03</ele>
        <time>2018-09-11T08:34:54Z</time>
      </trkpt>
      <trkpt lat="41.930633" lon="0.673404">
        <ele>687.67</ele>
        <time>2018-09-11T08:35:10Z</time>
      </trkpt>
      <trkpt lat="41.930775" lon="0.673590">
        <ele>686.69</ele>
        <time>2018-09-11T08:35:34Z</time>
      </trkpt>
      <trkpt lat="41.930932" lon="0.673723">
        <ele>685.64</ele>
        <time>2018-09-11T08:35:56Z</time>
      </trkpt>
      <trkpt lat="41.931108" lon="0.673858">
        <ele>681.17</ele>
        <time>2018-09-11T08:36:12Z</time>
      </trkpt>
      <trkpt lat="41.931243" lon="0.674025">
        <ele>677.13</ele>
        <time>2018-09-11T08:36:28Z</time>
      </trkpt>
      <trkpt lat="41.931360" lon="0.674237">
        <ele>676.97</ele>
        <time>2018-09-11T08:36:40Z</time>
      </trkpt>
      <trkpt lat="41.931436" lon="0.674488">
        <ele>672.98</ele>
        <time>2018-09-11T08:36:56Z</time>
      </trkpt>
      <trkpt lat="41.931545" lon="0.674685">
        <ele>669.73</ele>
        <time>2018-09-11T08:37:10Z</time>
      </trkpt>
      <trkpt lat="41.931641" lon="0.674893">
        <ele>667.71</ele>
        <time>2018-09-11T08:37:20Z</time>
      </trkpt>
      <trkpt lat="41.931691" lon="0.675140">
        <ele>664.71</ele>
        <time>2018-09-11T08:37:36Z</time>
      </trkpt>
      <trkpt lat="41.931718" lon="0.675409">
        <ele>661.68</ele>
        <time>2018-09-11T08:37:50Z</time>
      </trkpt>
      <trkpt lat="41.931765" lon="0.675655">
        <ele>662.26</ele>
        <time>2018-09-11T08:38:34Z</time>
      </trkpt>
      <trkpt lat="41.931731" lon="0.675906">
        <ele>657.66</ele>
        <time>2018-09-11T08:38:50Z</time>
      </trkpt>
      <trkpt lat="41.931904" lon="0.675992">
        <ele>659.47</ele>
        <time>2018-09-11T08:39:03Z</time>
      </trkpt>
      <trkpt lat="41.932084" lon="0.676165">
        <ele>652.92</ele>
        <time>2018-09-11T08:39:22Z</time>
      </trkpt>
      <trkpt lat="41.932223" lon="0.676381">
        <ele>651.95</ele>
        <time>2018-09-11T08:39:34Z</time>
      </trkpt>
      <trkpt lat="41.932353" lon="0.676596">
        <ele>654.82</ele>
        <time>2018-09-11T08:39:46Z</time>
      </trkpt>
      <trkpt lat="41.932487" lon="0.676777">
        <ele>651.92</ele>
        <time>2018-09-11T08:39:58Z</time>
      </trkpt>
      <trkpt lat="41.932682" lon="0.676861">
        <ele>651.95</ele>
        <time>2018-09-11T08:40:16Z</time>
      </trkpt>
      <trkpt lat="41.932858" lon="0.676732">
        <ele>651.72</ele>
        <time>2018-09-11T08:40:32Z</time>
      </trkpt>
      <trkpt lat="41.932979" lon="0.676547">
        <ele>649.11</ele>
        <time>2018-09-11T08:40:52Z</time>
      </trkpt>
      <trkpt lat="41.933142" lon="0.676406">
        <ele>648.81</ele>
        <time>2018-09-11T08:41:02Z</time>
      </trkpt>
      <trkpt lat="41.933351" lon="0.676320">
        <ele>646.15</ele>
        <time>2018-09-11T08:41:14Z</time>
      </trkpt>
      <trkpt lat="41.933543" lon="0.676394">
        <ele>648.71</ele>
        <time>2018-09-11T08:41:34Z</time>
      </trkpt>
      <trkpt lat="41.933708" lon="0.676518">
        <ele>648.73</ele>
        <time>2018-09-11T08:41:44Z</time>
      </trkpt>
      <trkpt lat="41.933874" lon="0.676619">
        <ele>650.70</ele>
        <time>2018-09-11T08:41:58Z</time>
      </trkpt>
      <trkpt lat="41.934036" lon="0.676785">
        <ele>660.77</ele>
        <time>2018-09-11T08:42:13Z</time>
      </trkpt>
      <trkpt lat="41.934138" lon="0.676803">
        <ele>652.25</ele>
        <time>2018-09-11T08:43:20Z</time>
      </trkpt>
      <trkpt lat="41.934297" lon="0.676955">
        <ele>656.22</ele>
        <time>2018-09-11T08:43:30Z</time>
      </trkpt>
      <trkpt lat="41.934467" lon="0.677097">
        <ele>653.97</ele>
        <time>2018-09-11T08:43:44Z</time>
      </trkpt>
      <trkpt lat="41.934637" lon="0.677248">
        <ele>651.05</ele>
        <time>2018-09-11T08:44:00Z</time>
      </trkpt>
      <trkpt lat="41.934642" lon="0.677497">
        <ele>662.32</ele>
        <time>2018-09-11T08:44:22Z</time>
      </trkpt>
      <trkpt lat="41.934693" lon="0.677773">
        <ele>664.51</ele>
        <time>2018-09-11T08:44:36Z</time>
      </trkpt>
      <trkpt lat="41.934840" lon="0.677923">
        <ele>657.23</ele>
        <time>2018-09-11T08:44:50Z</time>
      </trkpt>
      <trkpt lat="41.934982" lon="0.678091">
        <ele>662.14</ele>
        <time>2018-09-11T08:45:06Z</time>
      </trkpt>
      <trkpt lat="41.935092" lon="0.678314">
        <ele>661.67</ele>
        <time>2018-09-11T08:45:26Z</time>
      </trkpt>
    </trkseg>
  </trk>
</gpx>
